sensor_id;sensor_type;location;lat;lon;timestamp;pressure;altitude;pressure_sealevel;temperature;humidity
3796;BME280;1913;50.660;7.834;2022-12-07T00:01:15;97190.59;;;1.47;100.00
3796;BME280;1913;50.660;7.834;2022-12-07T00:03:42;97184.28;;;1.49;100.00
3796;BME280;1913;50.660;7.834;2022-12-07T00:06:10;97188.34;;;1.52;100.00
3796;BME280;1913;50.660;7.834;2022-12-07T00:08:36;97180.59;;;1.52;100.00
3796;BME280;1913;50.660;7.834;2022-12-07T00:11:07;97190.13;;;1.51;100.00
3796;BME280;1913;50.660;7.834;2022-12-07T00:13:33;97184.50;;;1.56;100.00
3796;BME280;1913;50.660;7.834;2022-12-07T00:16:04;97186.88;;;1.49;100.00
3796;BME280;1913;50.660;7.834;2022-12-07T00:18:30;97185.63;;;1.53;100.00
3796;BME280;1913;50.660;7.834;2022-12-07T00:21:03;97181.28;;;1.54;100.00
3796;BME280;1913;50.660;7.834;2022-12-07T00:23:29;97181.16;;;1.46;100.00
3796;BME280;1913;50.660;7.834;2022-12-07T00:25:55;97178.44;;;1.47;100.00
3796;BME280;1913;50.660;7.834;2022-12-07T00:28:20;97179.47;;;1.36;100.00
3796;BME280;1913;50.660;7.834;2022-12-07T00:30:46;97176.19;;;1.34;100.00
3796;BME280;1913;50.660;7.834;2022-12-07T00:33:11;97164.50;;;1.30;100.00
3796;BME280;1913;50.660;7.834;2022-12-07T00:35:36;97168.63;;;1.23;100.00
3796;BME280;1913;50.660;7.834;2022-12-07T00:38:02;97171.59;;;1.28;100.00
3796;BME280;1913;50.660;7.834;2022-12-07T00:40:27;97169.91;;;1.37;100.00
3796;BME280;1913;50.660;7.834;2022-12-07T00:42:52;97172.03;;;1.24;100.00
3796;BME280;1913;50.660;7.834;2022-12-07T00:45:18;97164.50;;;1.30;100.00
3796;BME280;1913;50.660;7.834;2022-12-07T00:47:43;97158.56;;;1.20;100.00
3796;BME280;1913;50.660;7.834;2022-12-07T00:50:09;97155.97;;;1.20;100.00
3796;BME280;1913;50.660;7.834;2022-12-07T00:52:34;97147.81;;;1.15;100.00
3796;BME280;1913;50.660;7.834;2022-12-07T00:54:59;97150.38;;;1.25;100.00
3796;BME280;1913;50.660;7.834;2022-12-07T00:57:25;97148.31;;;1.28;100.00
3796;BME280;1913;50.660;7.834;2022-12-07T00:59:50;97146.66;;;1.27;100.00
3796;BME280;1913;50.660;7.834;2022-12-07T01:02:20;97149.25;;;1.27;100.00
3796;BME280;1913;50.660;7.834;2022-12-07T01:04:45;97141.34;;;1.29;100.00
3796;BME280;1913;50.660;7.834;2022-12-07T01:07:11;97150.69;;;1.39;100.00
3796;BME280;1913;50.660;7.834;2022-12-07T01:09:36;97144.38;;;1.42;100.00
3796;BME280;1913;50.660;7.834;2022-12-07T01:12:01;97144.03;;;1.55;100.00
3796;BME280;1913;50.660;7.834;2022-12-07T01:14:27;97144.84;;;1.55;100.00
3796;BME280;1913;50.660;7.834;2022-12-07T01:16:53;97141.22;;;1.48;100.00
3796;BME280;1913;50.660;7.834;2022-12-07T01:19:18;97144.72;;;1.57;100.00
3796;BME280;1913;50.660;7.834;2022-12-07T01:21:44;97139.31;;;1.50;100.00
3796;BME280;1913;50.660;7.834;2022-12-07T01:24:10;97141.16;;;1.58;100.00
3796;BME280;1913;50.660;7.834;2022-12-07T01:26:36;97137.16;;;1.63;100.00
3796;BME280;1913;50.660;7.834;2022-12-07T01:29:01;97142.44;;;1.72;100.00
3796;BME280;1913;50.660;7.834;2022-12-07T01:31:28;97138.56;;;1.58;100.00
3796;BME280;1913;50.660;7.834;2022-12-07T01:33:55;97137.31;;;1.62;100.00
3796;BME280;1913;50.660;7.834;2022-12-07T01:36:31;97139.53;;;1.57;100.00
3796;BME280;1913;50.660;7.834;2022-12-07T01:38:59;97139.03;;;1.53;100.00
3796;BME280;1913;50.660;7.834;2022-12-07T01:41:30;97138.28;;;1.61;100.00
3796;BME280;1913;50.660;7.834;2022-12-07T01:51:46;97134.72;;;1.80;100.00
3796;BME280;1913;50.660;7.834;2022-12-07T01:54:14;97133.63;;;1.82;100.00
3796;BME280;1913;50.660;7.834;2022-12-07T01:56:45;97127.19;;;1.86;100.00
3796;BME280;1913;50.660;7.834;2022-12-07T01:59:13;97126.19;;;1.87;100.00
3796;BME280;1913;50.660;7.834;2022-12-07T02:01:38;97125.09;;;1.90;100.00
3796;BME280;1913;50.660;7.834;2022-12-07T02:04:04;97122.06;;;1.95;100.00
3796;BME280;1913;50.660;7.834;2022-12-07T02:06:31;97118.19;;;1.99;100.00
3796;BME280;1913;50.660;7.834;2022-12-07T02:08:56;97122.28;;;2.01;100.00
3796;BME280;1913;50.660;7.834;2022-12-07T02:11:22;97118.28;;;2.07;100.00
3796;BME280;1913;50.660;7.834;2022-12-07T02:13:48;97119.09;;;2.07;100.00
3796;BME280;1913;50.660;7.834;2022-12-07T02:16:29;97114.31;;;2.03;100.00
3796;BME280;1913;50.660;7.834;2022-12-07T02:21:57;97111.91;;;2.01;100.00
3796;BME280;1913;50.660;7.834;2022-12-07T02:32:09;97114.13;;;2.14;100.00
3796;BME280;1913;50.660;7.834;2022-12-07T02:40:17;97113.56;;;2.28;100.00
3796;BME280;1913;50.660;7.834;2022-12-07T02:42:47;97112.38;;;2.23;100.00
3796;BME280;1913;50.660;7.834;2022-12-07T02:45:18;97107.63;;;2.36;100.00
3796;BME280;1913;50.660;7.834;2022-12-07T02:47:48;97108.00;;;2.23;100.00
3796;BME280;1913;50.660;7.834;2022-12-07T02:50:14;97107.09;;;2.32;100.00
3796;BME280;1913;50.660;7.834;2022-12-07T02:52:40;97107.06;;;2.24;100.00
3796;BME280;1913;50.660;7.834;2022-12-07T02:55:06;97103.50;;;2.25;100.00
3796;BME280;1913;50.660;7.834;2022-12-07T02:57:41;97107.56;;;2.28;100.00
3796;BME280;1913;50.660;7.834;2022-12-07T03:00:15;97102.97;;;2.22;100.00
3796;BME280;1913;50.660;7.834;2022-12-07T03:05:48;97100.31;;;2.31;100.00
3796;BME280;1913;50.660;7.834;2022-12-07T03:11:01;97099.03;;;2.35;100.00
3796;BME280;1913;50.660;7.834;2022-12-07T03:16:08;97100.34;;;2.39;100.00
3796;BME280;1913;50.660;7.834;2022-12-07T03:18:51;97102.25;;;2.37;100.00
3796;BME280;1913;50.660;7.834;2022-12-07T03:21:23;97095.25;;;2.30;100.00
3796;BME280;1913;50.660;7.834;2022-12-07T03:23:56;97095.63;;;2.35;100.00
3796;BME280;1913;50.660;7.834;2022-12-07T03:26:30;97088.78;;;2.34;100.00
3796;BME280;1913;50.660;7.834;2022-12-07T03:28:59;97086.69;;;2.37;100.00
3796;BME280;1913;50.660;7.834;2022-12-07T03:31:30;97086.88;;;2.36;100.00
3796;BME280;1913;50.660;7.834;2022-12-07T03:34:07;97087.88;;;2.43;100.00
3796;BME280;1913;50.660;7.834;2022-12-07T03:36:51;97083.16;;;2.38;100.00
3796;BME280;1913;50.660;7.834;2022-12-07T03:39:30;97087.06;;;2.43;100.00
3796;BME280;1913;50.660;7.834;2022-12-07T03:41:58;97080.72;;;2.37;100.00
3796;BME280;1913;50.660;7.834;2022-12-07T03:44:25;97070.34;;;2.37;100.00
3796;BME280;1913;50.660;7.834;2022-12-07T03:49:52;97080.88;;;2.35;100.00
3796;BME280;1913;50.660;7.834;2022-12-07T03:52:23;97087.16;;;2.33;100.00
3796;BME280;1913;50.660;7.834;2022-12-07T03:55:05;97080.56;;;2.38;100.00
3796;BME280;1913;50.660;7.834;2022-12-07T03:57:33;97090.28;;;2.36;100.00
3796;BME280;1913;50.660;7.834;2022-12-07T04:00:00;97088.00;;;2.42;100.00
3796;BME280;1913;50.660;7.834;2022-12-07T04:02:27;97084.78;;;2.39;100.00
3796;BME280;1913;50.660;7.834;2022-12-07T04:04:55;97089.03;;;2.49;100.00
3796;BME280;1913;50.660;7.834;2022-12-07T04:07:20;97085.78;;;2.47;100.00
3796;BME280;1913;50.660;7.834;2022-12-07T04:09:46;97078.47;;;2.42;100.00
3796;BME280;1913;50.660;7.834;2022-12-07T04:12:11;97089.53;;;2.52;100.00
3796;BME280;1913;50.660;7.834;2022-12-07T04:14:37;97083.84;;;2.49;100.00
3796;BME280;1913;50.660;7.834;2022-12-07T04:17:02;97081.50;;;2.37;100.00
3796;BME280;1913;50.660;7.834;2022-12-07T04:19:30;97083.84;;;2.49;100.00
3796;BME280;1913;50.660;7.834;2022-12-07T04:21:57;97083.97;;;2.39;100.00
3796;BME280;1913;50.660;7.834;2022-12-07T04:24:23;97085.75;;;2.38;100.00
3796;BME280;1913;50.660;7.834;2022-12-07T04:26:49;97085.28;;;2.43;100.00
3796;BME280;1913;50.660;7.834;2022-12-07T04:29:15;97087.88;;;2.43;100.00
3796;BME280;1913;50.660;7.834;2022-12-07T04:31:41;97078.50;;;2.50;100.00
3796;BME280;1913;50.660;7.834;2022-12-07T04:34:07;97081.09;;;2.50;100.00
3796;BME280;1913;50.660;7.834;2022-12-07T04:36:32;97081.09;;;2.50;100.00
3796;BME280;1913;50.660;7.834;2022-12-07T04:38:58;97077.53;;;2.51;100.00
3796;BME280;1913;50.660;7.834;2022-12-07T04:41:24;97081.59;;;2.46;100.00
3796;BME280;1913;50.660;7.834;2022-12-07T04:43:58;97077.75;;;2.58;100.00
3796;BME280;1913;50.660;7.834;2022-12-07T04:46:24;97083.53;;;2.52;100.00
3796;BME280;1913;50.660;7.834;2022-12-07T04:48:51;97077.91;;;2.56;100.00
3796;BME280;1913;50.660;7.834;2022-12-07T04:51:28;97083.09;;;2.56;100.00
3796;BME280;1913;50.660;7.834;2022-12-07T04:53:55;97081.41;;;2.47;100.00
3796;BME280;1913;50.660;7.834;2022-12-07T04:56:21;97071.22;;;2.46;100.00
3796;BME280;1913;50.660;7.834;2022-12-07T04:58:48;97074.31;;;2.49;100.00
3796;BME280;1913;50.660;7.834;2022-12-07T05:01:14;97076.94;;;2.57;100.00
3796;BME280;1913;50.660;7.834;2022-12-07T05:03:40;97080.84;;;2.61;100.00
3796;BME280;1913;50.660;7.834;2022-12-07T05:06:06;97074.44;;;2.48;100.00
3796;BME280;1913;50.660;7.834;2022-12-07T05:08:33;97080.16;;;2.59;100.00
3796;BME280;1913;50.660;7.834;2022-12-07T05:10:59;97075.31;;;2.56;100.00
3796;BME280;1913;50.660;7.834;2022-12-07T05:13:25;97079.31;;;2.51;100.00
3796;BME280;1913;50.660;7.834;2022-12-07T05:15:50;97073.81;;;2.46;100.00
3796;BME280;1913;50.660;7.834;2022-12-07T05:18:16;97079.56;;;2.66;100.00
3796;BME280;1913;50.660;7.834;2022-12-07T05:20:42;97082.31;;;2.64;100.00
3796;BME280;1913;50.660;7.834;2022-12-07T05:23:08;97075.16;;;2.58;100.00
3796;BME280;1913;50.660;7.834;2022-12-07T05:25:34;97075.81;;;2.60;100.00
3796;BME280;1913;50.660;7.834;2022-12-07T05:28:00;97078.84;;;2.55;100.00
3796;BME280;1913;50.660;7.834;2022-12-07T05:30:26;97083.22;;;2.55;100.00
3796;BME280;1913;50.660;7.834;2022-12-07T05:32:52;97075.44;;;2.55;100.00
3796;BME280;1913;50.660;7.834;2022-12-07T05:35:18;97079.06;;;2.62;100.00
3796;BME280;1913;50.660;7.834;2022-12-07T05:37:44;97085.34;;;2.59;100.00
3796;BME280;1913;50.660;7.834;2022-12-07T05:40:11;97078.03;;;2.55;100.00
3796;BME280;1913;50.660;7.834;2022-12-07T05:42:37;97076.91;;;2.49;100.00
3796;BME280;1913;50.660;7.834;2022-12-07T05:45:03;97084.53;;;2.59;100.00
3796;BME280;1913;50.660;7.834;2022-12-07T05:47:28;97087.31;;;2.57;100.00
3796;BME280;1913;50.660;7.834;2022-12-07T05:49:54;97084.25;;;2.62;100.00
3796;BME280;1913;50.660;7.834;2022-12-07T05:52:19;97086.69;;;2.63;100.00
3796;BME280;1913;50.660;7.834;2022-12-07T05:54:44;97085.22;;;2.61;100.00
3796;BME280;1913;50.660;7.834;2022-12-07T05:57:10;97086.19;;;2.60;100.00
3796;BME280;1913;50.660;7.834;2022-12-07T05:59:35;97088.81;;;2.68;100.00
3796;BME280;1913;50.660;7.834;2022-12-07T06:02:07;97075.53;;;2.71;100.00
3796;BME280;1913;50.660;7.834;2022-12-07T06:04:36;97080.16;;;2.59;100.00
3796;BME280;1913;50.660;7.834;2022-12-07T06:07:02;97082.59;;;2.53;100.00
3796;BME280;1913;50.660;7.834;2022-12-07T06:09:28;97088.09;;;2.50;100.00
3796;BME280;1913;50.660;7.834;2022-12-07T06:11:54;97093.47;;;2.56;100.00
3796;BME280;1913;50.660;7.834;2022-12-07T06:14:38;97089.03;;;2.49;100.00
3796;BME280;1913;50.660;7.834;2022-12-07T06:17:04;97091.81;;;2.55;100.00
3796;BME280;1913;50.660;7.834;2022-12-07T06:19:30;97090.69;;;2.50;100.00
3796;BME280;1913;50.660;7.834;2022-12-07T06:21:55;97091.63;;;2.49;100.00
3796;BME280;1913;50.660;7.834;2022-12-07T06:24:21;97090.69;;;2.50;100.00
3796;BME280;1913;50.660;7.834;2022-12-07T06:26:47;97088.19;;;2.40;100.00
3796;BME280;1913;50.660;7.834;2022-12-07T06:29:13;97085.94;;;2.45;100.00
3796;BME280;1913;50.660;7.834;2022-12-07T06:31:39;97090.78;;;2.40;100.00
3796;BME280;1913;50.660;7.834;2022-12-07T06:34:14;97091.97;;;2.46;100.00
3796;BME280;1913;50.660;7.834;2022-12-07T06:36:40;97091.06;;;2.37;100.00
3796;BME280;1913;50.660;7.834;2022-12-07T06:39:06;97092.75;;;2.46;100.00
3796;BME280;1913;50.660;7.834;2022-12-07T06:41:32;97096.25;;;2.37;100.00
3796;BME280;1913;50.660;7.834;2022-12-07T06:43:57;97102.56;;;2.34;100.00
3796;BME280;1913;50.660;7.834;2022-12-07T06:46:23;97099.06;;;2.44;100.00
3796;BME280;1913;50.660;7.834;2022-12-07T06:48:48;97097.44;;;2.43;100.00
3796;BME280;1913;50.660;7.834;2022-12-07T06:51:14;97101.63;;;2.35;100.00
3796;BME280;1913;50.660;7.834;2022-12-07T06:53:39;97101.25;;;2.30;100.00
3796;BME280;1913;50.660;7.834;2022-12-07T06:56:05;97102.88;;;2.31;100.00
3796;BME280;1913;50.660;7.834;2022-12-07T06:58:31;97102.56;;;2.34;100.00
3796;BME280;1913;50.660;7.834;2022-12-07T07:00:56;97102.63;;;2.43;100.00
3796;BME280;1913;50.660;7.834;2022-12-07T07:03:22;97103.75;;;2.40;100.00
3796;BME280;1913;50.660;7.834;2022-12-07T07:05:47;97105.03;;;2.36;100.00
3796;BME280;1913;50.660;7.834;2022-12-07T07:08:13;97101.06;;;2.50;100.00
3796;BME280;1913;50.660;7.834;2022-12-07T07:10:39;97107.19;;;2.49;100.00
3796;BME280;1913;50.660;7.834;2022-12-07T07:13:04;97108.66;;;2.51;100.00
3796;BME280;1913;50.660;7.834;2022-12-07T07:15:31;97112.44;;;2.57;100.00
3796;BME280;1913;50.660;7.834;2022-12-07T07:17:57;97115.13;;;2.47;100.00
3796;BME280;1913;50.660;7.834;2022-12-07T07:20:22;97118.03;;;2.44;100.00
3796;BME280;1913;50.660;7.834;2022-12-07T07:22:48;97114.94;;;2.40;100.00
3796;BME280;1913;50.660;7.834;2022-12-07T07:25:14;97116.19;;;2.36;100.00
3796;BME280;1913;50.660;7.834;2022-12-07T07:27:40;97117.81;;;2.37;100.00
3796;BME280;1913;50.660;7.834;2022-12-07T07:30:06;97116.66;;;2.32;100.00
3796;BME280;1913;50.660;7.834;2022-12-07T07:32:31;97116.97;;;2.29;100.00
3796;BME280;1913;50.660;7.834;2022-12-07T07:34:56;97121.38;;;2.36;100.00
3796;BME280;1913;50.660;7.834;2022-12-07T07:37:22;97121.34;;;2.28;100.00
3796;BME280;1913;50.660;7.834;2022-12-07T07:39:47;97125.91;;;2.34;100.00
3796;BME280;1913;50.660;7.834;2022-12-07T07:42:13;97120.19;;;2.31;100.00
3796;BME280;1913;50.660;7.834;2022-12-07T07:44:39;97116.91;;;2.21;100.00
3796;BME280;1913;50.660;7.834;2022-12-07T07:47:04;97124.69;;;2.21;100.00
3796;BME280;1913;50.660;7.834;2022-12-07T07:49:30;97123.56;;;2.23;100.00
3796;BME280;1913;50.660;7.834;2022-12-07T07:51:55;97121.66;;;2.25;100.00
3796;BME280;1913;50.660;7.834;2022-12-07T07:54:21;97118.75;;;2.28;100.00
3796;BME280;1913;50.660;7.834;2022-12-07T07:56:46;97120.38;;;2.29;100.00
3796;BME280;1913;50.660;7.834;2022-12-07T07:59:11;97128.19;;;2.37;100.00
3796;BME280;1913;50.660;7.834;2022-12-07T08:01:37;97125.31;;;2.40;100.00
3796;BME280;1913;50.660;7.834;2022-12-07T08:04:02;97126.31;;;2.48;100.00
3796;BME280;1913;50.660;7.834;2022-12-07T08:06:28;97126.78;;;2.43;100.00
3796;BME280;1913;50.660;7.834;2022-12-07T08:08:53;97125.78;;;2.36;100.00
3796;BME280;1913;50.660;7.834;2022-12-07T08:11:19;97129.34;;;2.35;100.00
3796;BME280;1913;50.660;7.834;2022-12-07T08:13:47;97121.34;;;2.28;100.00
3796;BME280;1913;50.660;7.834;2022-12-07T08:16:13;97117.94;;;2.28;100.00
3796;BME280;1913;50.660;7.834;2022-12-07T08:18:41;97117.94;;;2.28;100.00
3796;BME280;1913;50.660;7.834;2022-12-07T08:21:09;97120.66;;;2.26;100.00
3796;BME280;1913;50.660;7.834;2022-12-07T08:23:35;97121.19;;;2.30;100.00
3796;BME280;1913;50.660;7.834;2022-12-07T08:26:12;97119.09;;;2.33;100.00
3796;BME280;1913;50.660;7.834;2022-12-07T08:28:38;97117.00;;;2.37;100.00
3796;BME280;1913;50.660;7.834;2022-12-07T08:31:07;97118.53;;;2.48;100.00
3796;BME280;1913;50.660;7.834;2022-12-07T08:33:34;97125.09;;;2.34;100.00
3796;BME280;1913;50.660;7.834;2022-12-07T08:36:06;97129.97;;;2.37;100.00
3796;BME280;1913;50.660;7.834;2022-12-07T08:38:37;97128.88;;;2.39;100.00
3796;BME280;1913;50.660;7.834;2022-12-07T08:41:03;97126.28;;;2.39;100.00
3796;BME280;1913;50.660;7.834;2022-12-07T08:43:29;97128.56;;;2.43;100.00
3796;BME280;1913;50.660;7.834;2022-12-07T08:46:06;97123.97;;;2.36;100.00
3796;BME280;1913;50.660;7.834;2022-12-07T08:48:34;97124.22;;;2.51;100.00
3796;BME280;1913;50.660;7.834;2022-12-07T08:51:01;97129.13;;;2.54;100.00
3796;BME280;1913;50.660;7.834;2022-12-07T08:53:28;97131.00;;;2.44;100.00
3796;BME280;1913;50.660;7.834;2022-12-07T08:55:55;97131.88;;;2.53;100.00
3796;BME280;1913;50.660;7.834;2022-12-07T08:58:21;97131.19;;;2.51;100.00
3796;BME280;1913;50.660;7.834;2022-12-07T09:00:47;97123.16;;;2.62;100.00
3796;BME280;1913;50.660;7.834;2022-12-07T09:03:12;97132.56;;;2.63;100.00
3796;BME280;1913;50.660;7.834;2022-12-07T09:05:38;97129.03;;;2.64;100.00
3796;BME280;1913;50.660;7.834;2022-12-07T09:08:03;97130.13;;;2.61;100.00
3796;BME280;1913;50.660;7.834;2022-12-07T09:10:29;97133.41;;;2.63;100.00
3796;BME280;1913;50.660;7.834;2022-12-07T09:12:55;97135.50;;;2.60;100.00
3796;BME280;1913;50.660;7.834;2022-12-07T09:15:20;97140.00;;;2.58;100.00
3796;BME280;1913;50.660;7.834;2022-12-07T09:17:46;97143.44;;;2.67;100.00
3796;BME280;1913;50.660;7.834;2022-12-07T09:20:11;97140.72;;;2.68;100.00
3796;BME280;1913;50.660;7.834;2022-12-07T09:22:37;97142.13;;;2.62;100.00
3796;BME280;1913;50.660;7.834;2022-12-07T09:25:03;97139.22;;;2.66;100.00
3796;BME280;1913;50.660;7.834;2022-12-07T09:27:29;97143.03;;;2.79;100.00
3796;BME280;1913;50.660;7.834;2022-12-07T09:29:55;97135.66;;;2.67;100.00
3796;BME280;1913;50.660;7.834;2022-12-07T09:32:21;97134.06;;;2.74;100.00
3796;BME280;1913;50.660;7.834;2022-12-07T09:34:46;97145.09;;;2.68;100.00
3796;BME280;1913;50.660;7.834;2022-12-07T09:37:11;97137.63;;;2.64;100.00
3796;BME280;1913;50.660;7.834;2022-12-07T09:39:40;97137.25;;;2.59;100.00
3796;BME280;1913;50.660;7.834;2022-12-07T09:42:07;97131.91;;;2.61;100.00
3796;BME280;1913;50.660;7.834;2022-12-07T09:44:34;97124.75;;;2.55;100.00
3796;BME280;1913;50.660;7.834;2022-12-07T09:47:00;97133.81;;;2.51;100.00
3796;BME280;1913;50.660;7.834;2022-12-07T09:49:29;97134.59;;;2.51;100.00
3796;BME280;1913;50.660;7.834;2022-12-07T09:54:36;97125.03;;;2.52;100.00
3796;BME280;1913;50.660;7.834;2022-12-07T09:57:04;97128.94;;;2.56;100.00
3796;BME280;1913;50.660;7.834;2022-12-07T09:59:30;97122.84;;;2.65;100.00
3796;BME280;1913;50.660;7.834;2022-12-07T10:01:55;97125.72;;;2.88;100.00
3796;BME280;1913;50.660;7.834;2022-12-07T10:04:24;97124.59;;;2.91;100.00
3796;BME280;1913;50.660;7.834;2022-12-07T10:06:51;97121.97;;;2.82;100.00
3796;BME280;1913;50.660;7.834;2022-12-07T10:09:19;97115.53;;;2.95;100.00
3796;BME280;1913;50.660;7.834;2022-12-07T10:12:17;97121.34;;;2.88;100.00
3796;BME280;1913;50.660;7.834;2022-12-07T10:14:55;97117.53;;;3.09;100.00
3796;BME280;1913;50.660;7.834;2022-12-07T10:17:40;97113.25;;;2.92;100.00
3796;BME280;1913;50.660;7.834;2022-12-07T10:22:36;97111.63;;;2.99;100.00
3796;BME280;1913;50.660;7.834;2022-12-07T10:25:09;97114.63;;;3.12;100.00
3796;BME280;1913;50.660;7.834;2022-12-07T10:27:43;97113.72;;;2.87;100.00
3796;BME280;1913;50.660;7.834;2022-12-07T10:30:20;97097.34;;;2.86;100.00
3796;BME280;1913;50.660;7.834;2022-12-07T10:32:46;97109.50;;;2.86;100.00
3796;BME280;1913;50.660;7.834;2022-12-07T10:35:28;97107.59;;;2.96;100.00
3796;BME280;1913;50.660;7.834;2022-12-07T10:37:56;97107.44;;;3.06;100.00
3796;BME280;1913;50.660;7.834;2022-12-07T10:40:24;97102.59;;;3.03;100.00
3796;BME280;1913;50.660;7.834;2022-12-07T10:56:57;97076.88;;;3.42;100.00
3796;BME280;1913;50.660;7.834;2022-12-07T11:07:22;97076.41;;;3.39;100.00
3796;BME280;1913;50.660;7.834;2022-12-07T11:18:06;97074.88;;;3.11;100.00
3796;BME280;1913;50.660;7.834;2022-12-07T11:20:53;97068.88;;;3.19;100.00
3796;BME280;1913;50.660;7.834;2022-12-07T11:26:41;97056.88;;;3.26;100.00
3796;BME280;1913;50.660;7.834;2022-12-07T11:32:15;97050.25;;;3.32;100.00
3796;BME280;1913;50.660;7.834;2022-12-07T11:37:21;97048.47;;;3.41;100.00
3796;BME280;1913;50.660;7.834;2022-12-07T11:39:52;97041.81;;;3.38;100.00
3796;BME280;1913;50.660;7.834;2022-12-07T11:42:25;97041.34;;;3.34;100.00
3796;BME280;1913;50.660;7.834;2022-12-07T11:45:02;97034.97;;;3.29;100.00
3796;BME280;1913;50.660;7.834;2022-12-07T11:52:49;97026.19;;;4.12;100.00
3796;BME280;1913;50.660;7.834;2022-12-07T11:55:26;97028.00;;;3.95;100.00
3796;BME280;1913;50.660;7.834;2022-12-07T11:58:03;97034.19;;;3.86;100.00
3796;BME280;1913;50.660;7.834;2022-12-07T12:00:29;97022.97;;;3.77;100.00
3796;BME280;1913;50.660;7.834;2022-12-07T12:03:05;97026.06;;;3.89;100.00
3796;BME280;1913;50.660;7.834;2022-12-07T12:05:34;97017.16;;;3.75;100.00
3796;BME280;1913;50.660;7.834;2022-12-07T12:08:03;97024.13;;;3.58;100.00
3796;BME280;1913;50.660;7.834;2022-12-07T12:13:24;97027.91;;;2.88;100.00
3796;BME280;1913;50.660;7.834;2022-12-07T12:19:00;97027.31;;;2.26;100.00
3796;BME280;1913;50.660;7.834;2022-12-07T12:21:28;97024.59;;;2.28;100.00
3796;BME280;1913;50.660;7.834;2022-12-07T12:24:02;97028.50;;;2.32;100.00
3796;BME280;1913;50.660;7.834;2022-12-07T12:26:32;97015.69;;;2.30;100.00
3796;BME280;1913;50.660;7.834;2022-12-07T12:29:02;97015.09;;;2.45;100.00
3796;BME280;1913;50.660;7.834;2022-12-07T12:31:36;97014.59;;;2.83;100.00
3796;BME280;1913;50.660;7.834;2022-12-07T12:35:20;97009.50;;;3.32;100.00
3796;BME280;1913;50.660;7.834;2022-12-07T12:42:44;97001.00;;;5.22;100.00
3796;BME280;1913;50.660;7.834;2022-12-07T12:45:22;96997.22;;;5.70;100.00
3796;BME280;1913;50.660;7.834;2022-12-07T12:48:00;96994.59;;;5.93;100.00
3796;BME280;1913;50.660;7.834;2022-12-07T12:50:27;96995.00;;;5.82;100.00
3796;BME280;1913;50.660;7.834;2022-12-07T13:00:43;96983.72;;;6.05;100.00
3796;BME280;1913;50.660;7.834;2022-12-07T13:03:30;96989.88;;;5.89;100.00
3796;BME280;1913;50.660;7.834;2022-12-07T13:06:18;96975.69;;;5.53;100.00
3796;BME280;1913;50.660;7.834;2022-12-07T13:08:45;96983.09;;;5.19;100.00
3796;BME280;1913;50.660;7.834;2022-12-07T13:16:57;96963.44;;;4.15;100.00
3796;BME280;1913;50.660;7.834;2022-12-07T13:25:21;96980.06;;;3.97;100.00
3796;BME280;1913;50.660;7.834;2022-12-07T13:28:14;96977.31;;;3.91;100.00
3796;BME280;1913;50.660;7.834;2022-12-07T13:33:34;96998.63;;;3.29;100.00
3796;BME280;1913;50.660;7.834;2022-12-07T13:36:00;96997.34;;;2.66;100.00
3796;BME280;1913;50.660;7.834;2022-12-07T13:38:32;96996.69;;;2.22;100.00
3796;BME280;1913;50.660;7.834;2022-12-07T13:43:30;96977.69;;;1.87;100.00
3796;BME280;1913;50.660;7.834;2022-12-07T13:45:59;96988.19;;;1.59;100.00
3796;BME280;1913;50.660;7.834;2022-12-07T13:48:36;96984.47;;;1.36;100.00
3796;BME280;1913;50.660;7.834;2022-12-07T13:51:17;96984.69;;;1.25;100.00
3796;BME280;1913;50.660;7.834;2022-12-07T13:53:54;96982.16;;;1.33;100.00
3796;BME280;1913;50.660;7.834;2022-12-07T13:56:28;96989.19;;;1.40;100.00
3796;BME280;1913;50.660;7.834;2022-12-07T13:58:57;96978.59;;;1.34;100.00
3796;BME280;1913;50.660;7.834;2022-12-07T14:01:24;96977.03;;;1.41;100.00
3796;BME280;1913;50.660;7.834;2022-12-07T14:03:50;96973.34;;;1.43;100.00
3796;BME280;1913;50.660;7.834;2022-12-07T14:06:27;96974.38;;;1.51;100.00
3796;BME280;1913;50.660;7.834;2022-12-07T14:09:17;96976.22;;;1.58;100.00
3796;BME280;1913;50.660;7.834;2022-12-07T14:11:44;96973.47;;;1.60;100.00
3796;BME280;1913;50.660;7.834;2022-12-07T14:14:27;96968.06;;;1.71;100.00
3796;BME280;1913;50.660;7.834;2022-12-07T14:17:18;96968.41;;;1.76;100.00
3796;BME280;1913;50.660;7.834;2022-12-07T14:20:02;96964.84;;;1.77;100.00
3796;BME280;1913;50.660;7.834;2022-12-07T14:22:38;96969.19;;;1.77;100.00
3796;BME280;1913;50.660;7.834;2022-12-07T14:27:39;96965.97;;;1.75;100.00
3796;BME280;1913;50.660;7.834;2022-12-07T14:30:05;96960.41;;;1.70;100.00
3796;BME280;1913;50.660;7.834;2022-12-07T14:32:32;96961.94;;;1.80;100.00
3796;BME280;1913;50.660;7.834;2022-12-07T14:37:33;96958.78;;;1.95;100.00
3796;BME280;1913;50.660;7.834;2022-12-07T14:39:58;96961.06;;;1.98;100.00
3796;BME280;1913;50.660;7.834;2022-12-07T14:42:27;96963.16;;;1.94;100.00
3796;BME280;1913;50.660;7.834;2022-12-07T14:44:55;96951.06;;;1.77;100.00
3796;BME280;1913;50.660;7.834;2022-12-07T14:47:21;96949.88;;;1.89;100.00
3796;BME280;1913;50.660;7.834;2022-12-07T14:49:46;96951.09;;;1.85;100.00
3796;BME280;1913;50.660;7.834;2022-12-07T14:52:18;96951.94;;;1.85;100.00
3796;BME280;1913;50.660;7.834;2022-12-07T14:54:44;96942.22;;;1.87;100.00
3796;BME280;1913;50.660;7.834;2022-12-07T14:57:10;96944.22;;;1.94;100.00
3796;BME280;1913;50.660;7.834;2022-12-07T14:59:36;96938.91;;;2.03;100.00
3796;BME280;1913;50.660;7.834;2022-12-07T15:02:02;96941.84;;;2.08;100.00
3796;BME280;1913;50.660;7.834;2022-12-07T15:04:28;96939.44;;;2.15;100.00
3796;BME280;1913;50.660;7.834;2022-12-07T15:07:02;96930.25;;;2.21;100.00
3796;BME280;1913;50.660;7.834;2022-12-07T15:09:28;96930.88;;;2.23;100.00
3796;BME280;1913;50.660;7.834;2022-12-07T15:11:54;96926.88;;;2.28;100.00
3796;BME280;1913;50.660;7.834;2022-12-07T15:14:19;96930.09;;;2.22;100.00
3796;BME280;1913;50.660;7.834;2022-12-07T15:16:45;96918.63;;;2.33;100.00
3796;BME280;1913;50.660;7.834;2022-12-07T15:19:30;96920.59;;;2.39;100.00
3796;BME280;1913;50.660;7.834;2022-12-07T15:21:57;96918.13;;;2.37;100.00
3796;BME280;1913;50.660;7.834;2022-12-07T15:24:23;96918.13;;;2.29;100.00
3796;BME280;1913;50.660;7.834;2022-12-07T15:26:49;96919.44;;;2.42;100.00
3796;BME280;1913;50.660;7.834;2022-12-07T15:29:15;96919.72;;;2.30;100.00
3796;BME280;1913;50.660;7.834;2022-12-07T15:31:41;96921.88;;;2.35;100.00
3796;BME280;1913;50.660;7.834;2022-12-07T15:34:06;96926.91;;;2.36;100.00
3796;BME280;1913;50.660;7.834;2022-12-07T15:36:33;96923.31;;;2.29;100.00